Time;durP1;ratioP1;P1;durP2;ratioP2;P2;SDS_P1;SDS_P2;PMS_P1;PMS_P2;Temp;Humidity;BMP_temperature;BMP_pressure;BME280_temperature;BME280_humidity;BME280_pressure;Samples;Min_cycle;Max_cycle;Signal;HPM_P1;HPM_P2
2023/06/26 00:02:15;;;;;;;11.20;7.88;;;23.70;99.10;;;;;;5075299;28;20051;-58
2023/06/26 00:04:42;;;;;;;9.68;7.10;;;23.60;99.20;;;;;;5062784;28;20037;-57
2023/06/26 00:07:07;;;;;;;12.50;7.57;;;23.60;99.20;;;;;;5060977;28;20041;-58
2023/06/26 00:09:34;;;;;;;10.23;7.40;;;23.60;99.20;;;;;;5062697;28;20040;-57
2023/06/26 00:12:00;;;;;;;11.15;7.63;;;23.60;99.40;;;;;;5060939;28;20040;-58
2023/06/26 00:14:26;;;;;;;9.55;7.28;;;23.60;99.50;;;;;;5062368;28;20055;-57
2023/06/26 00:16:52;;;;;;;9.70;7.03;;;23.60;99.30;;;;;;5061742;28;20527;-57
2023/06/26 00:19:18;;;;;;;10.25;7.60;;;23.60;99.30;;;;;;5061537;28;20528;-57
2023/06/26 00:21:47;;;;;;;10.38;7.25;;;23.50;99.30;;;;;;5062543;28;20557;-57
2023/06/26 00:24:17;;;;;;;10.55;7.70;;;23.50;99.10;;;;;;5060905;28;20049;-57
2023/06/26 00:26:43;;;;;;;11.82;8.23;;;23.50;99.80;;;;;;5061698;28;20055;-58
2023/06/26 00:29:09;;;;;;;11.05;8.00;;;23.50;99.60;;;;;;5060139;28;20507;-57
2023/06/26 00:31:39;;;;;;;9.82;7.15;;;23.40;99.50;;;;;;5062064;28;20040;-57
2023/06/26 00:34:05;;;;;;;10.57;7.82;;;23.40;99.40;;;;;;5061911;28;20114;-57
2023/06/26 00:36:31;;;;;;;10.25;7.93;;;23.30;99.70;;;;;;5060420;28;20500;-57
2023/06/26 00:38:57;;;;;;;12.18;7.88;;;23.20;99.70;;;;;;5062329;28;20037;-57
2023/06/26 00:41:22;;;;;;;11.38;7.22;;;23.30;99.90;;;;;;5060213;28;20075;-57
2023/06/26 00:43:49;;;;;;;9.75;7.38;;;23.30;99.90;;;;;;5062099;28;20060;-58
2023/06/26 00:46:15;;;;;;;9.80;7.97;;;23.30;99.90;;;;;;5060479;28;20056;-57
2023/06/26 00:48:46;;;;;;;11.52;7.70;;;23.20;99.90;;;;;;5060832;28;20041;-57
2023/06/26 00:51:11;;;;;;;11.53;7.60;;;23.10;99.90;;;;;;5061574;28;20053;-58
2023/06/26 00:53:37;;;;;;;11.10;8.38;;;23.20;99.90;;;;;;5060581;28;20033;-57
2023/06/26 00:56:04;;;;;;;10.23;7.82;;;23.20;99.90;;;;;;5061507;28;20116;-58
2023/06/26 00:58:30;;;;;;;10.38;7.68;;;23.10;99.90;;;;;;5060222;28;20048;-58
2023/06/26 01:00:56;;;;;;;10.68;8.00;;;23.10;99.90;;;;;;5067378;28;20032;-57
2023/06/26 01:03:25;;;;;;;10.88;8.48;;;23.10;99.90;;;;;;5080225;28;20040;-57
2023/06/26 01:05:59;;;;;;;11.55;7.88;;;23.10;99.90;;;;;;5081328;28;20055;-58
2023/06/26 01:08:26;;;;;;;9.57;7.50;;;23.00;99.90;;;;;;5081345;28;20049;-57
2023/06/26 01:10:52;;;;;;;11.40;7.95;;;23.00;99.90;;;;;;5080259;28;20106;-57
2023/06/26 01:13:18;;;;;;;11.30;8.40;;;23.00;99.90;;;;;;5081955;28;20033;-57
2023/06/26 01:15:44;;;;;;;10.98;7.82;;;23.00;99.90;;;;;;5080233;28;20430;-57
2023/06/26 01:18:10;;;;;;;11.05;8.18;;;22.90;99.90;;;;;;5081654;28;20044;-57
2023/06/26 01:20:41;;;;;;;10.80;8.30;;;22.90;99.90;;;;;;5080471;28;20344;-57
2023/06/26 01:23:51;;;;;;;12.00;8.53;;;22.90;99.90;;;;;;5081408;28;20049;-57
2023/06/26 01:26:18;;;;;;;10.90;8.32;;;22.90;99.90;;;;;;5038748;28;20323;-58
2023/06/26 01:28:45;;;;;;;11.15;8.18;;;22.90;99.90;;;;;;5037115;28;20046;-57
2023/06/26 01:31:11;;;;;;;11.05;9.32;;;22.80;99.90;;;;;;5059046;28;20058;-57
2023/06/26 01:33:38;;;;;;;12.10;8.77;;;22.80;99.90;;;;;;5080588;28;20045;-58
2023/06/26 01:36:04;;;;;;;12.95;9.20;;;22.80;99.90;;;;;;5079646;28;20049;-58
2023/06/26 01:38:29;;;;;;;13.00;9.70;;;22.80;99.90;;;;;;5082082;28;20048;-57
2023/06/26 01:40:55;;;;;;;11.13;9.10;;;22.70;99.90;;;;;;5084110;28;20032;-57
2023/06/26 01:43:24;;;;;;;13.48;9.23;;;22.70;99.90;;;;;;5085649;28;20143;-57
2023/06/26 01:45:53;;;;;;;10.50;8.50;;;22.70;99.90;;;;;;5083443;28;20449;-57
2023/06/26 01:48:30;;;;;;;15.15;9.27;;;22.70;99.90;;;;;;5085409;28;20120;-58
2023/06/26 01:50:59;;;;;;;13.52;8.82;;;22.70;99.90;;;;;;5084237;28;20036;-57
2023/06/26 01:53:29;;;;;;;11.23;9.07;;;22.60;99.90;;;;;;5084146;28;20057;-57
2023/06/26 01:56:04;;;;;;;13.52;9.80;;;22.60;99.90;;;;;;5084932;28;20088;-57
2023/06/26 01:58:31;;;;;;;15.07;10.05;;;22.60;99.90;;;;;;5083356;28;20166;-57
2023/06/26 02:00:57;;;;;;;12.40;9.35;;;22.50;99.90;;;;;;5085150;28;20072;-57
2023/06/26 02:03:24;;;;;;;12.40;8.65;;;22.40;99.90;;;;;;5083555;28;20067;-58
2023/06/26 02:05:51;;;;;;;11.90;9.00;;;22.40;99.90;;;;;;5084989;28;20049;-58
2023/06/26 02:08:16;;;;;;;11.85;8.30;;;22.40;99.90;;;;;;5084131;28;20048;-57
2023/06/26 02:10:42;;;;;;;13.77;9.27;;;22.40;99.90;;;;;;5083729;28;20124;-58
2023/06/26 02:13:08;;;;;;;11.75;9.10;;;22.40;99.90;;;;;;5084626;28;20113;-57
2023/06/26 02:15:33;;;;;;;11.98;8.98;;;22.30;99.90;;;;;;5083257;28;20041;-57
2023/06/26 02:17:59;;;;;;;13.07;9.45;;;22.30;99.90;;;;;;5084715;28;20127;-57
2023/06/26 02:20:24;;;;;;;11.15;8.77;;;22.30;99.90;;;;;;5082942;28;20048;-58
2023/06/26 02:22:50;;;;;;;12.40;8.77;;;22.30;99.90;;;;;;5074678;28;20045;-58
2023/06/26 02:25:18;;;;;;;11.40;9.00;;;22.20;99.90;;;;;;5076801;28;20040;-57
2023/06/26 02:27:43;;;;;;;12.30;9.50;;;22.30;99.90;;;;;;5074837;28;20040;-57
2023/06/26 02:30:09;;;;;;;12.25;9.20;;;22.20;99.90;;;;;;5084429;28;20121;-58
2023/06/26 02:32:35;;;;;;;13.02;8.98;;;22.20;99.90;;;;;;5077851;28;20801;-57
2023/06/26 02:35:01;;;;;;;13.15;9.45;;;22.10;99.90;;;;;;5074658;28;20083;-58
2023/06/26 02:37:27;;;;;;;12.60;9.75;;;22.10;99.90;;;;;;5067892;28;20091;-58
2023/06/26 02:39:53;;;;;;;12.68;9.77;;;22.10;99.90;;;;;;5064053;28;20041;-57
2023/06/26 02:42:18;;;;;;;12.73;9.85;;;22.20;99.90;;;;;;5063542;28;20049;-58
2023/06/26 02:44:44;;;;;;;12.15;9.75;;;22.10;99.90;;;;;;5063693;28;20051;-57
2023/06/26 02:47:10;;;;;;;11.88;9.88;;;22.00;99.90;;;;;;5064209;28;20057;-58
2023/06/26 02:49:35;;;;;;;14.57;10.50;;;22.00;99.90;;;;;;5062028;28;20056;-57
2023/06/26 02:52:01;;;;;;;12.77;10.20;;;22.00;99.90;;;;;;5064007;28;20045;-58
2023/06/26 02:54:27;;;;;;;12.90;10.50;;;22.00;99.90;;;;;;5062440;28;20041;-58
2023/06/26 02:56:52;;;;;;;13.82;9.88;;;22.00;99.90;;;;;;5063907;28;20051;-58
2023/06/26 02:59:18;;;;;;;13.15;10.23;;;22.00;99.90;;;;;;5062611;28;20100;-57
2023/06/26 03:01:44;;;;;;;14.18;10.27;;;22.00;99.90;;;;;;5063586;28;20542;-57
2023/06/26 03:04:10;;;;;;;13.07;10.18;;;22.00;99.90;;;;;;5065967;28;20033;-56
2023/06/26 03:06:36;;;;;;;12.85;10.27;;;21.90;99.90;;;;;;5069634;28;20041;-57
2023/06/26 03:09:02;;;;;;;14.02;10.48;;;21.90;99.90;;;;;;5071602;28;20041;-58
2023/06/26 03:11:28;;;;;;;14.43;10.30;;;21.90;99.90;;;;;;5062046;28;20060;-57
2023/06/26 03:13:54;;;;;;;12.32;10.18;;;21.90;99.90;;;;;;5063691;28;20044;-57
2023/06/26 03:16:19;;;;;;;13.65;11.13;;;22.00;99.90;;;;;;5062014;28;20519;-57
2023/06/26 03:18:45;;;;;;;13.38;10.98;;;21.90;99.90;;;;;;5063420;28;20037;-57
2023/06/26 03:21:11;;;;;;;14.98;11.27;;;22.00;99.90;;;;;;5063194;28;20500;-58
2023/06/26 03:23:37;;;;;;;13.50;10.38;;;21.90;99.90;;;;;;5062206;28;20044;-57
2023/06/26 03:26:02;;;;;;;13.85;10.90;;;21.90;99.90;;;;;;5063207;28;20083;-58
2023/06/26 03:28:28;;;;;;;14.30;11.77;;;21.80;99.90;;;;;;5061660;28;20041;-57
2023/06/26 03:30:54;;;;;;;14.20;11.57;;;21.80;99.90;;;;;;5062210;28;20116;-58
2023/06/26 03:33:19;;;;;;;13.63;10.98;;;21.80;99.90;;;;;;5061573;28;20039;-57
2023/06/26 03:35:45;;;;;;;14.32;11.05;;;21.70;99.90;;;;;;5063102;28;20079;-57
2023/06/26 03:38:11;;;;;;;12.85;10.60;;;21.70;99.90;;;;;;5062381;28;20041;-57
2023/06/26 03:40:37;;;;;;;13.07;10.48;;;21.70;99.90;;;;;;5062172;28;20056;-57
2023/06/26 03:43:02;;;;;;;15.50;10.68;;;21.90;99.90;;;;;;5063145;28;20053;-57
2023/06/26 03:45:28;;;;;;;14.40;11.27;;;21.70;99.90;;;;;;5061324;28;20059;-57
2023/06/26 03:47:53;;;;;;;13.05;10.68;;;21.80;99.90;;;;;;5063225;28;20067;-57
2023/06/26 03:50:20;;;;;;;13.35;10.98;;;21.80;99.90;;;;;;5066630;28;20076;-58
2023/06/26 03:52:45;;;;;;;14.88;11.55;;;21.90;99.90;;;;;;5074452;28;20051;-56
2023/06/26 03:55:11;;;;;;;13.65;11.02;;;21.80;99.90;;;;;;5074251;28;20064;-57
2023/06/26 03:57:37;;;;;;;12.85;10.40;;;21.70;99.90;;;;;;5066952;28;20105;-58
2023/06/26 04:00:11;;;;;;;13.20;10.02;;;21.70;99.90;;;;;;5062794;28;20049;-58
2023/06/26 04:02:36;;;;;;;13.57;10.77;;;21.80;99.90;;;;;;5060384;28;20504;-57
2023/06/26 04:05:04;;;;;;;13.55;10.90;;;21.80;99.90;;;;;;5062888;28;20067;-57
2023/06/26 04:07:30;;;;;;;14.90;10.15;;;21.70;99.90;;;;;;5060691;28;20424;-58
2023/06/26 04:09:57;;;;;;;12.57;9.82;;;21.70;99.90;;;;;;5062529;28;20044;-58
2023/06/26 04:12:23;;;;;;;14.45;10.57;;;21.60;99.90;;;;;;5061906;28;20047;-57
2023/06/26 04:14:48;;;;;;;14.90;10.23;;;21.60;99.90;;;;;;5061796;28;20080;-57
2023/06/26 04:17:14;;;;;;;13.95;10.82;;;21.60;99.90;;;;;;5062409;28;20044;-57
2023/06/26 04:19:40;;;;;;;12.90;10.13;;;21.50;99.90;;;;;;5060645;28;20045;-57
2023/06/26 04:22:05;;;;;;;12.20;9.55;;;21.50;99.90;;;;;;5062263;28;20045;-57
2023/06/26 04:24:31;;;;;;;14.27;9.10;;;21.40;99.90;;;;;;5060860;28;20626;-57
2023/06/26 04:26:57;;;;;;;12.35;8.85;;;21.40;99.90;;;;;;5062209;28;20138;-57
2023/06/26 04:29:27;;;;;;;12.65;8.50;;;21.40;99.90;;;;;;5059950;28;20108;-57
2023/06/26 04:31:57;;;;;;;14.15;8.70;;;21.30;99.90;;;;;;5061445;28;20106;-58
2023/06/26 04:34:27;;;;;;;13.15;8.02;;;21.40;99.90;;;;;;5062249;28;20081;-57
2023/06/26 04:36:53;;;;;;;14.43;8.20;;;21.40;99.90;;;;;;5060184;28;20431;-57
2023/06/26 04:39:19;;;;;;;14.55;8.35;;;21.30;99.90;;;;;;5061864;28;20048;-57
2023/06/26 04:41:45;;;;;;;15.05;8.55;;;21.30;99.90;;;;;;5060497;28;20040;-58
2023/06/26 04:44:12;;;;;;;15.55;9.25;;;21.30;99.90;;;;;;5061939;28;20045;-57
2023/06/26 04:46:46;;;;;;;15.23;8.65;;;21.10;99.90;;;;;;5061388;28;20049;-57
2023/06/26 04:49:12;;;;;;;15.68;9.30;;;20.90;99.90;;;;;;5060867;28;20041;-57
2023/06/26 04:51:40;;;;;;;17.92;9.25;;;20.80;99.90;;;;;;5060743;28;20052;-57
2023/06/26 04:54:10;;;;;;;17.00;9.80;;;21.00;99.90;;;;;;5059211;28;20053;-57
2023/06/26 04:56:36;;;;;;;17.13;10.70;;;20.90;99.90;;;;;;5061589;28;20082;-57
2023/06/26 04:59:03;;;;;;;18.80;10.98;;;20.60;99.90;;;;;;5060626;28;20041;-58
2023/06/26 05:01:29;;;;;;;18.27;11.75;;;20.60;99.90;;;;;;5061608;28;20052;-57
2023/06/26 05:03:58;;;;;;;19.60;12.23;;;20.50;99.90;;;;;;5059958;28;20122;-57
2023/06/26 05:06:24;;;;;;;17.30;12.00;;;20.30;99.90;;;;;;5060101;28;20048;-58
2023/06/26 05:08:50;;;;;;;19.23;11.15;;;20.20;99.90;;;;;;5061961;28;20045;-57
2023/06/26 05:11:16;;;;;;;20.13;11.23;;;20.30;99.90;;;;;;5060290;28;20048;-56
2023/06/26 05:13:42;;;;;;;18.40;10.93;;;20.20;99.90;;;;;;5064680;28;20033;-57
2023/06/26 05:16:09;;;;;;;20.00;11.30;;;20.10;99.90;;;;;;5064059;28;20083;-57
2023/06/26 05:18:35;;;;;;;17.50;8.75;;;20.00;99.90;;;;;;5065717;28;20079;-57
2023/06/26 05:21:02;;;;;;;23.45;9.35;;;19.70;99.90;;;;;;5065372;28;20060;-56
2023/06/26 05:23:31;;;;;;;15.80;9.00;;;19.80;99.90;;;;;;5063317;28;20069;-57
2023/06/26 05:25:57;;;;;;;16.65;8.63;;;19.50;99.90;;;;;;5064379;28;20049;-57
2023/06/26 05:28:27;;;;;;;17.80;8.75;;;19.50;99.90;;;;;;5064016;28;20052;-57
2023/06/26 05:30:54;;;;;;;16.67;7.13;;;19.40;99.90;;;;;;5065225;28;20049;-55
2023/06/26 05:33:23;;;;;;;14.73;7.28;;;19.40;99.90;;;;;;5068897;28;20047;-56
2023/06/26 05:35:50;;;;;;;18.95;7.15;;;19.30;99.90;;;;;;5079365;28;20044;-56
2023/06/26 05:38:16;;;;;;;14.98;7.72;;;19.20;99.90;;;;;;5081186;28;20036;-56
2023/06/26 05:40:42;;;;;;;18.73;7.82;;;19.30;99.90;;;;;;5074811;28;20074;-57
2023/06/26 05:43:08;;;;;;;16.58;6.88;;;19.10;99.90;;;;;;5080007;28;20059;-57
2023/06/26 05:45:34;;;;;;;15.35;6.28;;;19.10;99.90;;;;;;5078425;28;20041;-57
2023/06/26 05:48:00;;;;;;;18.20;6.72;;;19.20;99.90;;;;;;5082100;28;20048;-57
2023/06/26 05:50:26;;;;;;;17.95;6.45;;;19.10;99.90;;;;;;5080534;28;20048;-56
2023/06/26 05:52:53;;;;;;;17.45;6.38;;;19.00;99.90;;;;;;5081894;28;20504;-57
2023/06/26 05:55:19;;;;;;;18.08;5.80;;;19.10;99.90;;;;;;5080306;28;20104;-56
2023/06/26 05:57:46;;;;;;;16.38;5.00;;;19.00;99.90;;;;;;5078865;28;20076;-57
2023/06/26 06:00:12;;;;;;;13.95;4.97;;;19.10;99.90;;;;;;5080821;28;20046;-56
2023/06/26 06:02:38;;;;;;;16.98;5.40;;;19.00;99.90;;;;;;5078989;28;20032;-56
2023/06/26 06:05:05;;;;;;;17.77;4.68;;;18.90;99.90;;;;;;5080859;28;20071;-55
2023/06/26 06:07:32;;;;;;;17.83;4.70;;;19.00;99.90;;;;;;5079214;28;20530;-56
2023/06/26 06:09:58;;;;;;;11.90;4.07;;;19.10;99.90;;;;;;5081060;28;20072;-56
2023/06/26 06:12:24;;;;;;;13.60;4.43;;;19.30;99.90;;;;;;5080978;28;20072;-56
2023/06/26 06:14:52;;;;;;;13.55;4.20;;;19.10;99.90;;;;;;5080372;28;20688;-56
2023/06/26 06:17:19;;;;;;;17.20;4.60;;;19.10;99.90;;;;;;5081531;28;20041;-57
2023/06/26 06:19:45;;;;;;;17.50;4.32;;;19.30;99.90;;;;;;5079890;28;20067;-57
2023/06/26 06:22:11;;;;;;;14.95;4.63;;;19.40;99.90;;;;;;5081000;28;20044;-56
2023/06/26 06:24:37;;;;;;;16.15;4.35;;;19.50;99.90;;;;;;5077609;28;20052;-56
2023/06/26 06:27:03;;;;;;;12.15;4.20;;;19.60;99.90;;;;;;5081015;28;20154;-57
2023/06/26 06:29:28;;;;;;;12.30;3.95;;;19.50;99.90;;;;;;5080584;28;20032;-56
2023/06/26 06:31:54;;;;;;;10.90;3.05;;;19.60;99.90;;;;;;5080430;28;20037;-56
2023/06/26 06:34:20;;;;;;;12.73;3.47;;;19.60;99.90;;;;;;5080796;28;20067;-57
2023/06/26 06:36:46;;;;;;;8.85;3.13;;;19.60;99.90;;;;;;5079249;28;20044;-57
2023/06/26 06:39:11;;;;;;;11.50;2.83;;;19.70;99.90;;;;;;5081189;28;20997;-56
2023/06/26 06:41:37;;;;;;;14.23;3.33;;;19.70;99.90;;;;;;5079270;28;20104;-57
2023/06/26 06:44:03;;;;;;;11.45;3.33;;;19.80;99.90;;;;;;5079761;28;20064;-57
2023/06/26 06:46:29;;;;;;;11.10;2.58;;;19.90;99.90;;;;;;5071577;28;20040;-56
2023/06/26 06:48:56;;;;;;;8.63;2.70;;;19.90;99.90;;;;;;5071740;28;20045;-56
2023/06/26 06:51:22;;;;;;;8.35;2.50;;;20.20;99.90;;;;;;5080646;28;20040;-57
2023/06/26 06:53:48;;;;;;;10.43;2.40;;;20.20;99.90;;;;;;5079261;28;20439;-57
2023/06/26 06:56:13;;;;;;;8.75;2.55;;;20.20;99.90;;;;;;5080323;28;20175;-56
2023/06/26 06:58:42;;;;;;;11.00;3.58;;;20.20;99.90;;;;;;5078682;28;20048;-57
2023/06/26 07:01:10;;;;;;;7.72;2.00;;;20.10;99.90;;;;;;5080859;28;20036;-57
2023/06/26 07:03:36;;;;;;;7.88;2.45;;;20.30;99.90;;;;;;5078430;28;20063;-57
2023/06/26 07:06:03;;;;;;;10.82;2.33;;;20.20;99.90;;;;;;5079867;28;20052;-57
2023/06/26 07:08:29;;;;;;;9.88;2.45;;;20.20;99.90;;;;;;5080207;28;20079;-56
2023/06/26 07:10:56;;;;;;;8.18;2.20;;;20.40;99.90;;;;;;5078515;28;20051;-56
2023/06/26 07:13:22;;;;;;;9.73;2.60;;;20.20;99.90;;;;;;5080580;28;20086;-57
2023/06/26 07:15:48;;;;;;;10.77;2.97;;;20.40;99.90;;;;;;5068387;28;20096;-57
2023/06/26 07:18:14;;;;;;;11.27;3.25;;;20.50;99.90;;;;;;5073424;28;20037;-56
2023/06/26 07:20:40;;;;;;;8.70;2.50;;;20.10;99.90;;;;;;5068103;28;20033;-56
2023/06/26 07:23:06;;;;;;;7.43;2.00;;;19.90;99.90;;;;;;5077997;28;20051;-57
2023/06/26 07:25:31;;;;;;;9.95;2.53;;;19.80;99.90;;;;;;5079527;28;20046;-56
2023/06/26 07:27:57;;;;;;;9.07;2.40;;;20.10;99.90;;;;;;5066052;28;20052;-57
2023/06/26 07:30:24;;;;;;;9.25;1.95;;;20.20;99.90;;;;;;5071324;28;20104;-57
2023/06/26 07:32:49;;;;;;;8.50;2.05;;;20.30;99.90;;;;;;5062272;28;20054;-57
2023/06/26 07:35:15;;;;;;;8.88;2.38;;;20.30;99.90;;;;;;5068092;28;20572;-58
2023/06/26 07:37:41;;;;;;;8.93;2.17;;;20.20;99.90;;;;;;5067332;28;20049;-57
2023/06/26 07:40:08;;;;;;;8.60;2.60;;;20.30;99.90;;;;;;5066511;28;20145;-56
2023/06/26 07:42:34;;;;;;;8.40;2.08;;;20.50;99.90;;;;;;5070903;28;20070;-57
2023/06/26 07:44:59;;;;;;;8.50;1.80;;;20.40;99.90;;;;;;5066562;28;20032;-58
2023/06/26 07:47:25;;;;;;;6.32;1.45;;;20.50;99.90;;;;;;5078257;28;20075;-56
2023/06/26 07:49:51;;;;;;;7.75;2.00;;;20.50;99.90;;;;;;5076901;28;20466;-56
2023/06/26 07:52:19;;;;;;;5.28;1.63;;;20.30;99.90;;;;;;5078424;28;20044;-56
2023/06/26 07:54:44;;;;;;;13.25;3.33;;;20.20;99.90;;;;;;5076981;28;20043;-55
2023/06/26 07:57:11;;;;;;;10.32;2.10;;;20.10;99.90;;;;;;5077129;28;20048;-56
2023/06/26 07:59:37;;;;;;;8.32;2.03;;;20.20;99.90;;;;;;5078896;28;20051;-55
2023/06/26 08:02:03;;;;;;;6.43;2.00;;;20.40;99.90;;;;;;5077758;28;21140;-56
2023/06/26 08:04:33;;;;;;;7.45;2.33;;;20.30;99.90;;;;;;5079134;28;20040;-55
2023/06/26 08:07:00;;;;;;;7.57;1.85;;;20.20;99.90;;;;;;5077319;28;20602;-55
2023/06/26 08:09:29;;;;;;;7.35;1.92;;;20.10;99.90;;;;;;5078894;28;20113;-56
2023/06/26 08:11:55;;;;;;;7.50;2.30;;;20.20;99.90;;;;;;5077797;28;20036;-54
2023/06/26 08:14:21;;;;;;;9.88;2.10;;;20.40;99.90;;;;;;5079046;28;20049;-55
2023/06/26 08:16:50;;;;;;;8.27;2.45;;;20.00;99.90;;;;;;5079857;28;20055;-53
2023/06/26 08:19:17;;;;;;;6.68;2.30;;;20.30;99.90;;;;;;5080138;28;20048;-56
2023/06/26 08:21:44;;;;;;;8.57;2.13;;;20.10;99.90;;;;;;5081191;28;20045;-56
2023/06/26 08:24:10;;;;;;;8.80;2.10;;;20.40;99.90;;;;;;5071637;28;20036;-57
2023/06/26 08:26:36;;;;;;;9.18;2.08;;;20.10;99.90;;;;;;5071936;28;20119;-55
2023/06/26 08:29:07;;;;;;;6.70;1.92;;;20.10;99.90;;;;;;5073848;28;20567;-56
2023/06/26 08:31:37;;;;;;;8.60;2.30;;;20.20;99.90;;;;;;5073606;28;20468;-55
2023/06/26 08:34:03;;;;;;;9.43;2.00;;;20.20;99.90;;;;;;5078284;28;20101;-55
2023/06/26 08:36:29;;;;;;;11.65;2.03;;;20.00;99.90;;;;;;5074629;28;20068;-55
2023/06/26 08:38:55;;;;;;;8.20;2.10;;;19.90;99.90;;;;;;5079617;28;20043;-55
2023/06/26 08:41:21;;;;;;;8.15;2.95;;;20.40;99.90;;;;;;5071810;28;20044;-56
2023/06/26 08:43:47;;;;;;;10.15;3.10;;;20.30;99.90;;;;;;5074535;28;20040;-55
2023/06/26 08:46:14;;;;;;;9.50;2.40;;;20.30;99.90;;;;;;5060588;28;20045;-55
2023/06/26 08:48:45;;;;;;;7.93;2.35;;;20.10;99.90;;;;;;5078026;28;20115;-56
2023/06/26 08:51:15;;;;;;;6.70;2.03;;;20.10;99.90;;;;;;5071480;28;20448;-56
2023/06/26 08:53:58;;;;;;;9.18;2.50;;;19.90;99.90;;;;;;5059194;28;20075;-55
2023/06/26 08:56:27;;;;;;;6.88;2.10;;;20.00;99.90;;;;;;5061636;28;20075;-55
2023/06/26 08:58:54;;;;;;;6.93;2.25;;;20.40;99.90;;;;;;5059539;28;20056;-56
2023/06/26 09:01:21;;;;;;;8.95;2.50;;;20.00;99.90;;;;;;5073609;28;20083;-57
2023/06/26 09:03:46;;;;;;;6.28;2.00;;;20.00;99.90;;;;;;5077922;28;20490;-58
2023/06/26 09:06:12;;;;;;;7.82;3.38;;;20.50;99.90;;;;;;5079684;28;20068;-58
2023/06/26 09:08:38;;;;;;;10.85;2.30;;;20.70;99.90;;;;;;5080258;28;20041;-57
2023/06/26 09:11:03;;;;;;;7.25;2.30;;;20.80;99.90;;;;;;5079504;28;20104;-58
2023/06/26 09:13:30;;;;;;;6.70;2.55;;;20.60;99.90;;;;;;5080044;28;20049;-57
2023/06/26 09:15:56;;;;;;;4.93;2.03;;;20.30;99.90;;;;;;5077865;28;20086;-58
2023/06/26 09:18:22;;;;;;;7.45;2.72;;;20.10;99.90;;;;;;5080365;28;20036;-58
2023/06/26 09:20:48;;;;;;;6.82;2.40;;;20.10;99.90;;;;;;5079769;28;20067;-57
2023/06/26 09:23:14;;;;;;;8.18;2.50;;;20.60;99.90;;;;;;5079985;28;20056;-58
2023/06/26 09:25:41;;;;;;;8.52;2.20;;;20.80;99.90;;;;;;5079606;28;20048;-58
2023/06/26 09:28:07;;;;;;;5.95;2.28;;;20.40;99.90;;;;;;5079365;28;20407;-57
2023/06/26 09:30:33;;;;;;;6.97;2.00;;;20.40;99.90;;;;;;5079605;28;20055;-58
2023/06/26 09:33:17;;;;;;;7.43;2.25;;;20.40;99.90;;;;;;5079033;28;20041;-58
2023/06/26 09:35:44;;;;;;;7.65;2.83;;;20.50;99.90;;;;;;5072964;28;20067;-58
2023/06/26 09:38:10;;;;;;;6.90;2.40;;;20.40;99.90;;;;;;5063874;28;20045;-57
2023/06/26 09:40:37;;;;;;;7.45;3.22;;;20.60;99.90;;;;;;5073579;28;20044;-58
2023/06/26 09:43:07;;;;;;;8.82;3.50;;;20.70;99.90;;;;;;5070395;28;20041;-57
2023/06/26 09:45:36;;;;;;;9.10;3.00;;;20.50;99.90;;;;;;5070129;28;20041;-57
2023/06/26 09:48:02;;;;;;;9.63;3.25;;;21.00;99.90;;;;;;5069605;28;20049;-58
2023/06/26 09:50:29;;;;;;;10.18;3.95;;;20.60;99.90;;;;;;5068587;28;20039;-57
2023/06/26 09:52:55;;;;;;;8.32;3.33;;;20.90;99.90;;;;;;5065464;28;20060;-57
2023/06/26 09:55:22;;;;;;;6.93;2.85;;;20.70;99.90;;;;;;5073750;28;20048;-57
2023/06/26 09:57:50;;;;;;;7.30;2.55;;;20.40;99.90;;;;;;5058605;28;20057;-58
2023/06/26 10:00:16;;;;;;;8.60;3.50;;;21.00;99.90;;;;;;5067445;28;20084;-58
2023/06/26 10:02:42;;;;;;;6.82;3.42;;;21.00;99.90;;;;;;5070047;28;20426;-58
2023/06/26 10:05:08;;;;;;;6.43;3.38;;;21.20;99.90;;;;;;5070635;28;20032;-57
2023/06/26 10:07:35;;;;;;;8.50;3.20;;;21.40;99.90;;;;;;5074076;28;20041;-56
2023/06/26 10:10:03;;;;;;;7.95;3.22;;;21.10;99.90;;;;;;5069493;28;20052;-58
2023/06/26 10:12:31;;;;;;;8.15;2.92;;;20.70;99.90;;;;;;5071204;28;20040;-56
2023/06/26 10:14:57;;;;;;;7.53;3.20;;;20.90;99.90;;;;;;5073426;28;20089;-57
2023/06/26 10:17:30;;;;;;;6.35;2.83;;;20.60;99.90;;;;;;5062239;28;20072;-58
2023/06/26 10:19:58;;;;;;;8.48;3.20;;;20.90;99.90;;;;;;5061822;28;20045;-58
2023/06/26 10:22:29;;;;;;;8.80;3.70;;;20.80;99.90;;;;;;5062553;28;20041;-57
2023/06/26 10:24:58;;;;;;;10.25;3.30;;;21.00;99.90;;;;;;5064945;28;20043;-55
2023/06/26 10:27:27;;;;;;;7.53;2.95;;;20.70;99.90;;;;;;5082713;28;20079;-58
2023/06/26 10:29:56;;;;;;;8.07;3.33;;;20.60;99.90;;;;;;5082143;28;20045;-58
2023/06/26 10:32:24;;;;;;;6.63;3.00;;;20.50;99.90;;;;;;5081308;28;20053;-57
2023/06/26 10:34:51;;;;;;;7.85;2.88;;;20.70;99.90;;;;;;5069769;28;20041;-57
2023/06/26 10:37:16;;;;;;;7.35;2.78;;;21.10;99.90;;;;;;5067456;28;20125;-58
2023/06/26 10:39:51;;;;;;;8.02;3.47;;;21.00;99.90;;;;;;5071869;28;20476;-57
2023/06/26 10:42:19;;;;;;;8.30;3.47;;;21.10;99.90;;;;;;5071484;28;20411;-57
2023/06/26 10:44:46;;;;;;;8.38;3.53;;;21.50;99.90;;;;;;5070180;28;20037;-58
2023/06/26 10:47:36;;;;;;;6.28;2.80;;;20.80;99.90;;;;;;5072690;28;20789;-58
2023/06/26 10:50:25;;;;;;;8.73;2.92;;;20.60;99.90;;;;;;5071777;28;20078;-57
2023/06/26 10:53:35;;;;;;;6.32;2.72;;;20.50;99.90;;;;;;5063565;28;20044;-58
2023/06/26 10:56:02;;;;;;;7.55;2.70;;;20.50;99.90;;;;;;5068227;28;20056;-56
2023/06/26 10:58:40;;;;;;;7.55;2.25;;;20.60;99.90;;;;;;5068293;28;20103;-58
2023/06/26 11:01:14;;;;;;;6.30;2.15;;;21.30;99.90;;;;;;5073481;28;20455;-58
2023/06/26 11:03:42;;;;;;;8.25;2.03;;;21.20;99.90;;;;;;5067806;28;20044;-57
2023/06/26 11:06:12;;;;;;;7.60;1.80;;;21.40;99.90;;;;;;5069902;28;20036;-57
2023/06/26 11:08:55;;;;;;;5.95;1.63;;;21.60;99.90;;;;;;5075397;28;20132;-58
2023/06/26 11:11:41;;;;;;;7.53;1.88;;;21.30;99.90;;;;;;5060916;28;20044;-57
2023/06/26 11:14:07;;;;;;;8.27;2.10;;;21.60;99.70;;;;;;5061589;28;20554;-58
2023/06/26 11:16:34;;;;;;;6.63;1.58;;;21.70;99.90;;;;;;5072130;28;20087;-57
2023/06/26 11:19:00;;;;;;;9.95;1.80;;;21.50;99.90;;;;;;5071514;28;20080;-56
2023/06/26 11:21:27;;;;;;;6.60;2.00;;;21.40;99.90;;;;;;5077234;28;20209;-56
2023/06/26 11:23:58;;;;;;;4.93;1.48;;;21.00;99.90;;;;;;5074219;28;20055;-53
2023/06/26 11:26:23;;;;;;;6.32;1.60;;;21.10;99.90;;;;;;5075844;28;20041;-55
2023/06/26 11:28:55;;;;;;;8.77;1.75;;;21.20;99.90;;;;;;5058611;28;20609;-54
2023/06/26 11:31:30;;;;;;;6.45;1.55;;;20.70;99.90;;;;;;5080744;28;20063;-56
2023/06/26 11:33:56;;;;;;;7.55;1.73;;;20.60;99.90;;;;;;5068776;28;20037;-55
2023/06/26 11:36:26;;;;;;;8.73;2.13;;;20.40;99.90;;;;;;5067983;28;20058;-56
2023/06/26 11:38:59;;;;;;;10.90;2.05;;;20.80;99.90;;;;;;5066375;28;20691;-56
2023/06/26 11:41:30;;;;;;;7.13;2.03;;;21.00;99.90;;;;;;5067476;28;20348;-55
2023/06/26 11:43:56;;;;;;;9.25;2.08;;;20.50;99.90;;;;;;5067294;28;20044;-55
2023/06/26 11:46:22;;;;;;;9.13;1.95;;;20.50;99.90;;;;;;5068733;28;20037;-55
2023/06/26 11:48:48;;;;;;;6.53;1.70;;;21.00;99.90;;;;;;5057233;28;20102;-55
2023/06/26 11:51:15;;;;;;;8.38;1.70;;;21.80;99.90;;;;;;5060439;28;20041;-54
2023/06/26 11:53:45;;;;;;;9.50;1.90;;;21.20;99.00;;;;;;5069059;28;20129;-56
2023/06/26 11:56:13;;;;;;;8.70;1.80;;;21.60;99.10;;;;;;5071894;28;20040;-56
2023/06/26 11:59:00;;;;;;;7.07;1.90;;;21.60;99.50;;;;;;5060414;28;20053;-55
2023/06/26 12:01:31;;;;;;;6.78;1.60;;;21.40;99.80;;;;;;5061111;28;20075;-56
2023/06/26 12:04:03;;;;;;;7.05;1.80;;;21.00;99.30;;;;;;5060762;28;20068;-55
2023/06/26 12:06:33;;;;;;;;;;;20.90;99.40;;;;;;5060741;28;20053;-56
2023/06/26 12:09:03;;;;;;;6.88;1.70;;;20.90;98.20;;;;;;5060837;28;19921;-56
2023/06/26 12:11:30;;;;;;;10.73;1.95;;;20.70;99.10;;;;;;5060254;28;20033;-56
2023/06/26 12:13:56;;;;;;;6.43;1.80;;;20.40;99.30;;;;;;5060909;28;20045;-55
2023/06/26 12:16:21;;;;;;;6.03;1.70;;;20.40;99.90;;;;;;5060328;28;20104;-55
2023/06/26 12:18:47;;;;;;;6.57;1.92;;;20.30;99.90;;;;;;5059434;28;20061;-56
2023/06/26 12:21:44;;;;;;;9.52;2.25;;;20.60;99.10;;;;;;5060508;28;20037;-57
2023/06/26 12:24:14;;;;;;;6.95;1.80;;;20.60;98.00;;;;;;5059767;28;20193;-57
2023/06/26 12:26:49;;;;;;;7.72;1.73;;;20.60;98.70;;;;;;5071260;28;20091;-58
2023/06/26 12:29:17;;;;;;;7.35;1.58;;;20.50;99.00;;;;;;5076831;28;20437;-58
2023/06/26 12:31:45;;;;;;;5.97;1.33;;;20.50;98.50;;;;;;5077915;28;20048;-57
2023/06/26 12:34:18;;;;;;;8.00;1.88;;;20.40;98.20;;;;;;5075530;28;20032;-58
2023/06/26 12:36:49;;;;;;;7.78;1.83;;;20.70;98.60;;;;;;5074711;28;20040;-58
2023/06/26 12:39:21;;;;;;;7.38;1.83;;;21.10;98.50;;;;;;5077842;28;20128;-59
2023/06/26 12:41:53;;;;;;;11.13;1.80;;;21.20;99.00;;;;;;5071984;28;20052;-58
2023/06/26 12:44:26;;;;;;;6.63;1.95;;;21.30;98.90;;;;;;5067516;28;20535;-57